sensor_id;sensor_type;location;lat;lon;timestamp;temperature;humidity
51567;DHT22;37657;53.182;5.638;2023-05-25T00:01:33;10.80;99.90
51567;DHT22;37657;53.182;5.638;2023-05-25T00:04:00;10.80;99.90
51567;DHT22;37657;53.182;5.638;2023-05-25T00:06:28;10.70;99.90
51567;DHT22;37657;53.182;5.638;2023-05-25T00:08:54;10.80;99.90
51567;DHT22;37657;53.182;5.638;2023-05-25T00:11:24;10.70;99.90
51567;DHT22;37657;53.182;5.638;2023-05-25T00:13:51;10.60;99.90
51567;DHT22;37657;53.182;5.638;2023-05-25T00:16:16;10.50;99.90
51567;DHT22;37657;53.182;5.638;2023-05-25T00:18:42;10.50;99.90
51567;DHT22;37657;53.182;5.638;2023-05-25T00:21:08;10.50;99.90
51567;DHT22;37657;53.182;5.638;2023-05-25T00:23:34;10.50;99.90
51567;DHT22;37657;53.182;5.638;2023-05-25T00:26:02;10.40;99.90
51567;DHT22;37657;53.182;5.638;2023-05-25T00:28:27;10.50;99.90
51567;DHT22;37657;53.182;5.638;2023-05-25T00:30:53;10.40;99.90
51567;DHT22;37657;53.182;5.638;2023-05-25T00:33:19;10.40;99.90
51567;DHT22;37657;53.182;5.638;2023-05-25T00:35:44;10.30;99.90
51567;DHT22;37657;53.182;5.638;2023-05-25T00:38:15;10.40;99.90
51567;DHT22;37657;53.182;5.638;2023-05-25T00:40:42;10.40;99.90
51567;DHT22;37657;53.182;5.638;2023-05-25T00:43:08;10.50;99.90
51567;DHT22;37657;53.182;5.638;2023-05-25T00:45:33;10.40;99.90
51567;DHT22;37657;53.182;5.638;2023-05-25T00:48:00;10.50;99.90
51567;DHT22;37657;53.182;5.638;2023-05-25T00:50:43;10.40;99.90
51567;DHT22;37657;53.182;5.638;2023-05-25T00:53:11;10.40;99.90
51567;DHT22;37657;53.182;5.638;2023-05-25T00:58:33;10.30;99.90
51567;DHT22;37657;53.182;5.638;2023-05-25T01:01:00;10.20;99.90
51567;DHT22;37657;53.182;5.638;2023-05-25T01:03:30;10.20;99.90
51567;DHT22;37657;53.182;5.638;2023-05-25T01:06:03;10.20;99.90
51567;DHT22;37657;53.182;5.638;2023-05-25T01:08:33;10.10;99.90
51567;DHT22;37657;53.182;5.638;2023-05-25T01:11:02;10.20;99.90
51567;DHT22;37657;53.182;5.638;2023-05-25T01:13:29;10.10;99.90
51567;DHT22;37657;53.182;5.638;2023-05-25T01:15:55;10.20;99.90
51567;DHT22;37657;53.182;5.638;2023-05-25T01:18:21;10.10;99.90
51567;DHT22;37657;53.182;5.638;2023-05-25T01:21:03;10.20;99.90
51567;DHT22;37657;53.182;5.638;2023-05-25T01:23:41;10.20;99.90
51567;DHT22;37657;53.182;5.638;2023-05-25T01:26:13;10.00;99.90
51567;DHT22;37657;53.182;5.638;2023-05-25T01:28:43;10.10;99.90
51567;DHT22;37657;53.182;5.638;2023-05-25T01:31:12;10.00;99.90
51567;DHT22;37657;53.182;5.638;2023-05-25T01:33:39;10.10;99.90
51567;DHT22;37657;53.182;5.638;2023-05-25T01:36:06;10.00;99.90
51567;DHT22;37657;53.182;5.638;2023-05-25T01:38:32;10.10;99.90
51567;DHT22;37657;53.182;5.638;2023-05-25T01:40:58;10.00;99.90
51567;DHT22;37657;53.182;5.638;2023-05-25T01:43:24;10.00;99.90
51567;DHT22;37657;53.182;5.638;2023-05-25T01:45:55;10.00;99.90
51567;DHT22;37657;53.182;5.638;2023-05-25T01:48:36;10.10;99.90
51567;DHT22;37657;53.182;5.638;2023-05-25T01:51:14;10.10;99.90
51567;DHT22;37657;53.182;5.638;2023-05-25T01:53:59;10.10;99.90
51567;DHT22;37657;53.182;5.638;2023-05-25T01:56:26;10.10;99.90
51567;DHT22;37657;53.182;5.638;2023-05-25T01:58:54;10.10;99.90
51567;DHT22;37657;53.182;5.638;2023-05-25T02:01:22;10.10;99.90
51567;DHT22;37657;53.182;5.638;2023-05-25T02:03:48;10.00;99.90
51567;DHT22;37657;53.182;5.638;2023-05-25T02:06:15;10.00;99.90
51567;DHT22;37657;53.182;5.638;2023-05-25T02:08:40;10.00;99.90
51567;DHT22;37657;53.182;5.638;2023-05-25T02:11:08;9.90;99.90
51567;DHT22;37657;53.182;5.638;2023-05-25T02:13:33;9.80;99.90
51567;DHT22;37657;53.182;5.638;2023-05-25T02:15:59;9.70;99.90
51567;DHT22;37657;53.182;5.638;2023-05-25T02:18:25;9.90;99.90
51567;DHT22;37657;53.182;5.638;2023-05-25T02:20:50;9.80;99.90
51567;DHT22;37657;53.182;5.638;2023-05-25T02:23:16;9.90;99.90
51567;DHT22;37657;53.182;5.638;2023-05-25T02:25:43;9.70;99.90
51567;DHT22;37657;53.182;5.638;2023-05-25T02:28:08;9.60;99.90
51567;DHT22;37657;53.182;5.638;2023-05-25T02:30:34;9.60;99.90
51567;DHT22;37657;53.182;5.638;2023-05-25T02:32:59;9.70;99.90
51567;DHT22;37657;53.182;5.638;2023-05-25T02:35:26;9.70;99.90
51567;DHT22;37657;53.182;5.638;2023-05-25T02:37:52;9.60;99.90
51567;DHT22;37657;53.182;5.638;2023-05-25T02:40:17;9.70;99.90
51567;DHT22;37657;53.182;5.638;2023-05-25T02:42:43;9.70;99.90
51567;DHT22;37657;53.182;5.638;2023-05-25T02:45:09;9.70;99.90
51567;DHT22;37657;53.182;5.638;2023-05-25T02:47:35;9.70;99.90
51567;DHT22;37657;53.182;5.638;2023-05-25T02:50:02;9.70;99.90
51567;DHT22;37657;53.182;5.638;2023-05-25T02:52:27;9.70;99.90
51567;DHT22;37657;53.182;5.638;2023-05-25T02:54:55;9.70;99.90
51567;DHT22;37657;53.182;5.638;2023-05-25T02:57:20;9.70;99.90
51567;DHT22;37657;53.182;5.638;2023-05-25T02:59:47;9.60;99.90
51567;DHT22;37657;53.182;5.638;2023-05-25T03:02:13;9.60;99.90
51567;DHT22;37657;53.182;5.638;2023-05-25T03:04:38;9.70;99.90
51567;DHT22;37657;53.182;5.638;2023-05-25T03:07:06;9.60;99.90
51567;DHT22;37657;53.182;5.638;2023-05-25T03:09:31;9.70;99.90
51567;DHT22;37657;53.182;5.638;2023-05-25T03:11:57;9.60;99.90
51567;DHT22;37657;53.182;5.638;2023-05-25T03:14:22;9.70;99.90
51567;DHT22;37657;53.182;5.638;2023-05-25T03:16:48;9.60;99.90
51567;DHT22;37657;53.182;5.638;2023-05-25T03:19:13;9.70;99.90
51567;DHT22;37657;53.182;5.638;2023-05-25T03:21:39;9.70;99.90
51567;DHT22;37657;53.182;5.638;2023-05-25T03:24:05;9.60;99.90
51567;DHT22;37657;53.182;5.638;2023-05-25T03:26:32;9.60;99.90
51567;DHT22;37657;53.182;5.638;2023-05-25T03:28:58;9.60;99.90
51567;DHT22;37657;53.182;5.638;2023-05-25T03:31:23;9.70;99.90
51567;DHT22;37657;53.182;5.638;2023-05-25T03:33:49;9.70;99.90
51567;DHT22;37657;53.182;5.638;2023-05-25T03:36:15;9.70;99.90
51567;DHT22;37657;53.182;5.638;2023-05-25T03:38:42;9.70;99.90
51567;DHT22;37657;53.182;5.638;2023-05-25T03:41:08;9.70;99.90
51567;DHT22;37657;53.182;5.638;2023-05-25T03:43:34;9.70;99.90
51567;DHT22;37657;53.182;5.638;2023-05-25T03:45:59;9.70;99.90
51567;DHT22;37657;53.182;5.638;2023-05-25T03:48:25;9.60;99.90
51567;DHT22;37657;53.182;5.638;2023-05-25T03:50:50;9.60;99.90
51567;DHT22;37657;53.182;5.638;2023-05-25T03:53:16;9.80;99.90
51567;DHT22;37657;53.182;5.638;2023-05-25T03:55:42;9.90;99.90
51567;DHT22;37657;53.182;5.638;2023-05-25T03:58:08;9.80;99.90
51567;DHT22;37657;53.182;5.638;2023-05-25T04:00:36;9.90;99.90
51567;DHT22;37657;53.182;5.638;2023-05-25T04:03:02;10.00;99.90
51567;DHT22;37657;53.182;5.638;2023-05-25T04:05:28;10.00;99.90
51567;DHT22;37657;53.182;5.638;2023-05-25T04:07:53;10.00;99.90
51567;DHT22;37657;53.182;5.638;2023-05-25T04:10:20;9.90;99.90
51567;DHT22;37657;53.182;5.638;2023-05-25T04:12:46;10.00;99.90
51567;DHT22;37657;53.182;5.638;2023-05-25T04:15:11;9.90;99.90
51567;DHT22;37657;53.182;5.638;2023-05-25T04:17:39;9.90;99.90
51567;DHT22;37657;53.182;5.638;2023-05-25T04:20:06;10.10;99.90
51567;DHT22;37657;53.182;5.638;2023-05-25T04:22:33;10.00;99.90
51567;DHT22;37657;53.182;5.638;2023-05-25T04:24:58;10.00;99.90
51567;DHT22;37657;53.182;5.638;2023-05-25T04:27:24;10.10;99.90
51567;DHT22;37657;53.182;5.638;2023-05-25T04:29:50;10.40;99.90
51567;DHT22;37657;53.182;5.638;2023-05-25T04:32:18;10.50;99.90
51567;DHT22;37657;53.182;5.638;2023-05-25T04:34:45;10.60;99.90
51567;DHT22;37657;53.182;5.638;2023-05-25T04:37:12;10.50;99.90
51567;DHT22;37657;53.182;5.638;2023-05-25T04:39:38;10.80;99.90
51567;DHT22;37657;53.182;5.638;2023-05-25T04:42:04;11.10;99.90
51567;DHT22;37657;53.182;5.638;2023-05-25T04:44:30;11.10;99.90
51567;DHT22;37657;53.182;5.638;2023-05-25T04:46:56;10.90;99.90
51567;DHT22;37657;53.182;5.638;2023-05-25T04:49:24;11.00;99.90
51567;DHT22;37657;53.182;5.638;2023-05-25T04:51:50;11.20;99.90
51567;DHT22;37657;53.182;5.638;2023-05-25T04:54:16;11.40;99.90
51567;DHT22;37657;53.182;5.638;2023-05-25T04:56:42;11.50;99.90
51567;DHT22;37657;53.182;5.638;2023-05-25T04:59:07;11.20;99.90
51567;DHT22;37657;53.182;5.638;2023-05-25T05:01:33;11.40;99.90
51567;DHT22;37657;53.182;5.638;2023-05-25T05:04:05;11.60;99.90
51567;DHT22;37657;53.182;5.638;2023-05-25T05:06:31;11.50;99.90
51567;DHT22;37657;53.182;5.638;2023-05-25T05:08:56;11.90;99.90
51567;DHT22;37657;53.182;5.638;2023-05-25T05:11:22;11.60;99.90
51567;DHT22;37657;53.182;5.638;2023-05-25T05:13:48;11.70;99.90
51567;DHT22;37657;53.182;5.638;2023-05-25T05:16:13;11.80;99.90
51567;DHT22;37657;53.182;5.638;2023-05-25T05:18:39;12.00;99.90
51567;DHT22;37657;53.182;5.638;2023-05-25T05:21:04;11.80;99.90
51567;DHT22;37657;53.182;5.638;2023-05-25T05:23:30;12.00;99.90
51567;DHT22;37657;53.182;5.638;2023-05-25T05:25:58;12.00;99.90
51567;DHT22;37657;53.182;5.638;2023-05-25T05:28:23;12.00;99.90
51567;DHT22;37657;53.182;5.638;2023-05-25T05:30:52;12.30;99.90
51567;DHT22;37657;53.182;5.638;2023-05-25T05:33:17;12.40;99.90
51567;DHT22;37657;53.182;5.638;2023-05-25T05:35:43;12.10;99.90
51567;DHT22;37657;53.182;5.638;2023-05-25T05:38:09;12.10;99.90
51567;DHT22;37657;53.182;5.638;2023-05-25T05:40:35;12.30;99.90
51567;DHT22;37657;53.182;5.638;2023-05-25T05:43:00;12.10;99.90
51567;DHT22;37657;53.182;5.638;2023-05-25T05:45:26;12.30;99.90
51567;DHT22;37657;53.182;5.638;2023-05-25T05:47:52;12.40;99.90
51567;DHT22;37657;53.182;5.638;2023-05-25T05:50:17;12.50;99.90
51567;DHT22;37657;53.182;5.638;2023-05-25T05:52:43;12.40;99.90
51567;DHT22;37657;53.182;5.638;2023-05-25T05:55:08;12.50;99.90
51567;DHT22;37657;53.182;5.638;2023-05-25T05:57:34;12.60;99.90
51567;DHT22;37657;53.182;5.638;2023-05-25T06:00:00;12.60;99.90
51567;DHT22;37657;53.182;5.638;2023-05-25T06:02:25;12.80;99.90
51567;DHT22;37657;53.182;5.638;2023-05-25T06:04:51;12.80;99.90
51567;DHT22;37657;53.182;5.638;2023-05-25T06:07:16;12.80;99.90
51567;DHT22;37657;53.182;5.638;2023-05-25T06:09:42;12.60;99.90
51567;DHT22;37657;53.182;5.638;2023-05-25T06:12:08;12.70;99.90
51567;DHT22;37657;53.182;5.638;2023-05-25T06:14:33;12.70;99.90
51567;DHT22;37657;53.182;5.638;2023-05-25T06:16:59;12.70;99.90
51567;DHT22;37657;53.182;5.638;2023-05-25T06:19:27;12.70;99.90
51567;DHT22;37657;53.182;5.638;2023-05-25T06:21:53;12.70;99.90
51567;DHT22;37657;53.182;5.638;2023-05-25T06:24:18;13.00;99.90
51567;DHT22;37657;53.182;5.638;2023-05-25T06:26:44;12.90;99.90
51567;DHT22;37657;53.182;5.638;2023-05-25T06:29:18;13.00;99.90
51567;DHT22;37657;53.182;5.638;2023-05-25T06:31:44;13.00;99.90
51567;DHT22;37657;53.182;5.638;2023-05-25T06:34:10;13.10;99.90
51567;DHT22;37657;53.182;5.638;2023-05-25T06:36:35;13.00;99.90
51567;DHT22;37657;53.182;5.638;2023-05-25T06:39:01;13.00;99.90
51567;DHT22;37657;53.182;5.638;2023-05-25T06:41:27;13.10;99.90
51567;DHT22;37657;53.182;5.638;2023-05-25T06:43:52;13.10;99.90
51567;DHT22;37657;53.182;5.638;2023-05-25T06:46:18;13.30;99.90
51567;DHT22;37657;53.182;5.638;2023-05-25T06:48:43;13.20;99.90
51567;DHT22;37657;53.182;5.638;2023-05-25T06:51:10;13.50;99.90
51567;DHT22;37657;53.182;5.638;2023-05-25T06:53:36;13.30;99.90
51567;DHT22;37657;53.182;5.638;2023-05-25T06:56:02;13.30;99.90
51567;DHT22;37657;53.182;5.638;2023-05-25T06:58:28;13.40;99.90
51567;DHT22;37657;53.182;5.638;2023-05-25T07:00:54;13.40;99.90
51567;DHT22;37657;53.182;5.638;2023-05-25T07:03:19;13.40;99.90
51567;DHT22;37657;53.182;5.638;2023-05-25T07:05:45;13.40;99.90
51567;DHT22;37657;53.182;5.638;2023-05-25T07:08:10;13.50;99.90
51567;DHT22;37657;53.182;5.638;2023-05-25T07:10:39;13.50;99.90
51567;DHT22;37657;53.182;5.638;2023-05-25T07:13:04;13.50;99.90
51567;DHT22;37657;53.182;5.638;2023-05-25T07:15:30;13.50;99.90
51567;DHT22;37657;53.182;5.638;2023-05-25T07:17:56;13.50;99.90
51567;DHT22;37657;53.182;5.638;2023-05-25T07:20:22;13.60;99.90
51567;DHT22;37657;53.182;5.638;2023-05-25T07:22:48;13.60;99.90
51567;DHT22;37657;53.182;5.638;2023-05-25T07:25:13;13.60;99.90
51567;DHT22;37657;53.182;5.638;2023-05-25T07:27:39;13.60;99.90
51567;DHT22;37657;53.182;5.638;2023-05-25T07:30:07;13.60;99.90
51567;DHT22;37657;53.182;5.638;2023-05-25T07:32:33;13.70;99.90
51567;DHT22;37657;53.182;5.638;2023-05-25T07:34:58;13.80;99.90
51567;DHT22;37657;53.182;5.638;2023-05-25T07:37:24;13.90;99.90
51567;DHT22;37657;53.182;5.638;2023-05-25T07:39:49;13.70;99.90
51567;DHT22;37657;53.182;5.638;2023-05-25T07:42:16;13.70;99.90
51567;DHT22;37657;53.182;5.638;2023-05-25T07:44:46;13.60;99.90
51567;DHT22;37657;53.182;5.638;2023-05-25T07:47:11;13.60;99.90
51567;DHT22;37657;53.182;5.638;2023-05-25T07:49:37;13.70;99.90
51567;DHT22;37657;53.182;5.638;2023-05-25T07:52:02;13.70;99.90
51567;DHT22;37657;53.182;5.638;2023-05-25T07:54:30;13.70;99.90
51567;DHT22;37657;53.182;5.638;2023-05-25T07:56:56;13.80;99.90
51567;DHT22;37657;53.182;5.638;2023-05-25T07:59:21;13.80;99.90
51567;DHT22;37657;53.182;5.638;2023-05-25T08:01:47;13.80;99.90
51567;DHT22;37657;53.182;5.638;2023-05-25T08:04:12;13.90;99.90
51567;DHT22;37657;53.182;5.638;2023-05-25T08:06:38;13.80;99.90
51567;DHT22;37657;53.182;5.638;2023-05-25T08:09:04;13.90;99.90
51567;DHT22;37657;53.182;5.638;2023-05-25T08:11:32;13.90;99.90
51567;DHT22;37657;53.182;5.638;2023-05-25T08:13:57;14.00;99.90
51567;DHT22;37657;53.182;5.638;2023-05-25T08:16:24;14.20;99.90
51567;DHT22;37657;53.182;5.638;2023-05-25T08:18:50;14.20;99.90
51567;DHT22;37657;53.182;5.638;2023-05-25T08:21:17;14.20;99.90
51567;DHT22;37657;53.182;5.638;2023-05-25T08:23:42;14.10;99.90
51567;DHT22;37657;53.182;5.638;2023-05-25T08:26:11;14.10;99.90
51567;DHT22;37657;53.182;5.638;2023-05-25T08:28:37;14.20;99.90
51567;DHT22;37657;53.182;5.638;2023-05-25T08:31:03;14.20;99.90
51567;DHT22;37657;53.182;5.638;2023-05-25T08:33:29;14.20;99.90
51567;DHT22;37657;53.182;5.638;2023-05-25T08:35:55;14.30;99.90
51567;DHT22;37657;53.182;5.638;2023-05-25T08:38:21;14.40;99.90
51567;DHT22;37657;53.182;5.638;2023-05-25T08:41:05;14.40;99.90
51567;DHT22;37657;53.182;5.638;2023-05-25T08:43:31;14.50;99.90
51567;DHT22;37657;53.182;5.638;2023-05-25T08:46:03;14.50;99.90
51567;DHT22;37657;53.182;5.638;2023-05-25T08:48:33;14.40;99.90
51567;DHT22;37657;53.182;5.638;2023-05-25T08:51:12;14.20;99.90
51567;DHT22;37657;53.182;5.638;2023-05-25T08:53:40;14.10;99.90
51567;DHT22;37657;53.182;5.638;2023-05-25T08:56:19;14.10;99.90
51567;DHT22;37657;53.182;5.638;2023-05-25T08:59:09;14.00;99.90
51567;DHT22;37657;53.182;5.638;2023-05-25T09:01:41;14.20;99.90
51567;DHT22;37657;53.182;5.638;2023-05-25T09:04:08;14.50;99.90
51567;DHT22;37657;53.182;5.638;2023-05-25T09:06:34;14.60;99.90
51567;DHT22;37657;53.182;5.638;2023-05-25T09:09:03;15.00;99.90
51567;DHT22;37657;53.182;5.638;2023-05-25T09:11:30;15.00;99.90
51567;DHT22;37657;53.182;5.638;2023-05-25T09:13:56;14.90;99.90
51567;DHT22;37657;53.182;5.638;2023-05-25T09:16:22;14.90;99.90
51567;DHT22;37657;53.182;5.638;2023-05-25T09:18:49;14.80;99.90
51567;DHT22;37657;53.182;5.638;2023-05-25T09:21:14;14.70;99.90
51567;DHT22;37657;53.182;5.638;2023-05-25T09:23:41;14.70;99.90
51567;DHT22;37657;53.182;5.638;2023-05-25T09:26:07;14.70;99.90
51567;DHT22;37657;53.182;5.638;2023-05-25T09:28:33;14.90;99.90
51567;DHT22;37657;53.182;5.638;2023-05-25T09:30:59;15.00;99.90
51567;DHT22;37657;53.182;5.638;2023-05-25T09:33:25;14.90;99.90
51567;DHT22;37657;53.182;5.638;2023-05-25T09:35:50;15.00;99.90
51567;DHT22;37657;53.182;5.638;2023-05-25T09:38:16;15.00;99.90
51567;DHT22;37657;53.182;5.638;2023-05-25T09:40:42;15.10;99.90
51567;DHT22;37657;53.182;5.638;2023-05-25T09:43:08;15.10;99.90
51567;DHT22;37657;53.182;5.638;2023-05-25T09:45:33;15.00;99.90
51567;DHT22;37657;53.182;5.638;2023-05-25T09:48:00;15.10;99.90
51567;DHT22;37657;53.182;5.638;2023-05-25T09:50:27;15.10;99.90
51567;DHT22;37657;53.182;5.638;2023-05-25T09:52:56;15.20;99.90
51567;DHT22;37657;53.182;5.638;2023-05-25T09:55:22;15.10;99.90
51567;DHT22;37657;53.182;5.638;2023-05-25T09:57:52;15.20;99.90
51567;DHT22;37657;53.182;5.638;2023-05-25T10:00:19;15.10;99.90
51567;DHT22;37657;53.182;5.638;2023-05-25T10:02:45;15.20;99.90
51567;DHT22;37657;53.182;5.638;2023-05-25T10:05:11;15.30;99.90
51567;DHT22;37657;53.182;5.638;2023-05-25T10:07:37;15.20;99.90
51567;DHT22;37657;53.182;5.638;2023-05-25T10:10:05;15.20;99.90
51567;DHT22;37657;53.182;5.638;2023-05-25T10:12:34;15.20;99.90
51567;DHT22;37657;53.182;5.638;2023-05-25T10:15:02;15.00;99.90
51567;DHT22;37657;53.182;5.638;2023-05-25T10:17:29;14.70;99.90
51567;DHT22;37657;53.182;5.638;2023-05-25T10:19:59;14.50;99.90
51567;DHT22;37657;53.182;5.638;2023-05-25T10:22:35;14.60;99.90
51567;DHT22;37657;53.182;5.638;2023-05-25T10:27:41;15.10;99.90
51567;DHT22;37657;53.182;5.638;2023-05-25T10:30:09;15.10;99.90
51567;DHT22;37657;53.182;5.638;2023-05-25T10:32:36;15.10;99.90
51567;DHT22;37657;53.182;5.638;2023-05-25T10:35:04;15.10;99.90
51567;DHT22;37657;53.182;5.638;2023-05-25T10:37:30;14.90;99.90
51567;DHT22;37657;53.182;5.638;2023-05-25T10:39:56;14.80;99.90
51567;DHT22;37657;53.182;5.638;2023-05-25T10:42:25;14.70;99.90
51567;DHT22;37657;53.182;5.638;2023-05-25T10:44:55;14.70;99.90
51567;DHT22;37657;53.182;5.638;2023-05-25T10:47:21;14.60;99.90
51567;DHT22;37657;53.182;5.638;2023-05-25T10:49:52;14.70;99.90
51567;DHT22;37657;53.182;5.638;2023-05-25T10:52:18;15.00;99.90
51567;DHT22;37657;53.182;5.638;2023-05-25T10:54:48;14.90;99.90
51567;DHT22;37657;53.182;5.638;2023-05-25T10:57:19;14.90;99.90
51567;DHT22;37657;53.182;5.638;2023-05-25T10:59:53;14.90;99.90
51567;DHT22;37657;53.182;5.638;2023-05-25T11:02:27;15.10;99.90
51567;DHT22;37657;53.182;5.638;2023-05-25T11:07:55;15.10;99.90
51567;DHT22;37657;53.182;5.638;2023-05-25T11:16:06;15.20;99.90
51567;DHT22;37657;53.182;5.638;2023-05-25T11:18:40;15.10;99.90
51567;DHT22;37657;53.182;5.638;2023-05-25T11:21:13;14.80;99.90
51567;DHT22;37657;53.182;5.638;2023-05-25T11:24:02;14.50;99.90
51567;DHT22;37657;53.182;5.638;2023-05-25T11:26:29;14.80;99.90
51567;DHT22;37657;53.182;5.638;2023-05-25T11:28:56;15.00;99.90
51567;DHT22;37657;53.182;5.638;2023-05-25T11:31:30;15.00;99.90
51567;DHT22;37657;53.182;5.638;2023-05-25T11:34:02;14.90;99.90
51567;DHT22;37657;53.182;5.638;2023-05-25T11:36:32;15.00;99.90
51567;DHT22;37657;53.182;5.638;2023-05-25T11:39:05;14.90;99.90
51567;DHT22;37657;53.182;5.638;2023-05-25T11:41:31;14.90;99.90
51567;DHT22;37657;53.182;5.638;2023-05-25T11:44:05;14.90;99.90
51567;DHT22;37657;53.182;5.638;2023-05-25T11:46:32;14.90;99.90
51567;DHT22;37657;53.182;5.638;2023-05-25T11:48:59;14.90;99.90
51567;DHT22;37657;53.182;5.638;2023-05-25T11:51:27;14.90;99.90
51567;DHT22;37657;53.182;5.638;2023-05-25T11:53:53;14.90;99.90
51567;DHT22;37657;53.182;5.638;2023-05-25T11:56:19;15.00;99.90
51567;DHT22;37657;53.182;5.638;2023-05-25T11:58:48;15.10;99.90
51567;DHT22;37657;53.182;5.638;2023-05-25T12:01:23;15.00;99.90
51567;DHT22;37657;53.182;5.638;2023-05-25T12:03:50;14.80;99.90
51567;DHT22;37657;53.182;5.638;2023-05-25T12:06:28;14.90;99.90
51567;DHT22;37657;53.182;5.638;2023-05-25T12:08:55;15.00;99.90
51567;DHT22;37657;53.182;5.638;2023-05-25T12:11:32;15.10;99.90
51567;DHT22;37657;53.182;5.638;2023-05-25T12:13:58;15.20;99.90
51567;DHT22;37657;53.182;5.638;2023-05-25T12:16:24;15.40;99.90
51567;DHT22;37657;53.182;5.638;2023-05-25T12:18:51;15.40;99.90
51567;DHT22;37657;53.182;5.638;2023-05-25T12:21:18;15.30;99.90
51567;DHT22;37657;53.182;5.638;2023-05-25T12:23:45;15.20;99.90
51567;DHT22;37657;53.182;5.638;2023-05-25T12:26:15;15.20;99.90
51567;DHT22;37657;53.182;5.638;2023-05-25T12:29:16;15.20;99.90
51567;DHT22;37657;53.182;5.638;2023-05-25T12:31:42;15.20;99.90
51567;DHT22;37657;53.182;5.638;2023-05-25T12:34:09;15.20;99.90
51567;DHT22;37657;53.182;5.638;2023-05-25T12:36:55;15.00;99.90
51567;DHT22;37657;53.182;5.638;2023-05-25T12:41:57;15.10;99.90
51567;DHT22;37657;53.182;5.638;2023-05-25T12:44:34;15.40;99.90
51567;DHT22;37657;53.182;5.638;2023-05-25T12:49:40;15.30;99.90
51567;DHT22;37657;53.182;5.638;2023-05-25T12:52:07;15.20;99.90
51567;DHT22;37657;53.182;5.638;2023-05-25T12:54:38;15.20;99.90
51567;DHT22;37657;53.182;5.638;2023-05-25T12:57:06;15.30;99.90
51567;DHT22;37657;53.182;5.638;2023-05-25T12:59:32;15.20;99.90
51567;DHT22;37657;53.182;5.638;2023-05-25T13:01:59;15.10;99.90
51567;DHT22;37657;53.182;5.638;2023-05-25T13:04:24;15.20;99.90
51567;DHT22;37657;53.182;5.638;2023-05-25T13:06:51;15.30;99.90
51567;DHT22;37657;53.182;5.638;2023-05-25T13:09:16;15.10;99.90
51567;DHT22;37657;53.182;5.638;2023-05-25T13:11:42;15.10;99.90
51567;DHT22;37657;53.182;5.638;2023-05-25T13:14:08;15.10;99.90
51567;DHT22;37657;53.182;5.638;2023-05-25T13:16:33;15.10;99.90
51567;DHT22;37657;53.182;5.638;2023-05-25T13:19:00;15.20;99.90
51567;DHT22;37657;53.182;5.638;2023-05-25T13:21:26;15.20;99.90
51567;DHT22;37657;53.182;5.638;2023-05-25T13:23:52;15.10;99.90
51567;DHT22;37657;53.182;5.638;2023-05-25T13:26:19;15.10;99.90
51567;DHT22;37657;53.182;5.638;2023-05-25T13:28:45;15.00;99.90
51567;DHT22;37657;53.182;5.638;2023-05-25T13:31:10;14.90;99.90
51567;DHT22;37657;53.182;5.638;2023-05-25T13:33:36;14.90;99.90
51567;DHT22;37657;53.182;5.638;2023-05-25T13:36:02;14.90;99.90
51567;DHT22;37657;53.182;5.638;2023-05-25T13:38:34;15.00;99.90
51567;DHT22;37657;53.182;5.638;2023-05-25T13:41:01;14.80;99.90
51567;DHT22;37657;53.182;5.638;2023-05-25T13:43:27;14.70;99.90
51567;DHT22;37657;53.182;5.638;2023-05-25T13:45:53;14.90;99.90
51567;DHT22;37657;53.182;5.638;2023-05-25T13:48:18;14.90;99.90
51567;DHT22;37657;53.182;5.638;2023-05-25T13:50:44;14.90;99.90
51567;DHT22;37657;53.182;5.638;2023-05-25T13:53:10;15.00;99.90
51567;DHT22;37657;53.182;5.638;2023-05-25T13:55:36;14.90;99.90
51567;DHT22;37657;53.182;5.638;2023-05-25T13:58:01;15.00;99.90
51567;DHT22;37657;53.182;5.638;2023-05-25T14:00:27;14.70;99.90
51567;DHT22;37657;53.182;5.638;2023-05-25T14:02:53;14.80;99.90
51567;DHT22;37657;53.182;5.638;2023-05-25T14:05:18;14.90;99.90
51567;DHT22;37657;53.182;5.638;2023-05-25T14:07:45;15.10;99.90
51567;DHT22;37657;53.182;5.638;2023-05-25T14:10:11;15.00;99.90
51567;DHT22;37657;53.182;5.638;2023-05-25T14:12:37;14.80;99.90
51567;DHT22;37657;53.182;5.638;2023-05-25T14:15:03;15.00;99.90
51567;DHT22;37657;53.182;5.638;2023-05-25T14:17:29;14.90;99.90
51567;DHT22;37657;53.182;5.638;2023-05-25T14:19:54;15.00;99.90
51567;DHT22;37657;53.182;5.638;2023-05-25T14:22:20;14.90;99.90
51567;DHT22;37657;53.182;5.638;2023-05-25T14:24:45;15.00;99.90
51567;DHT22;37657;53.182;5.638;2023-05-25T14:27:11;15.10;99.90
51567;DHT22;37657;53.182;5.638;2023-05-25T14:29:37;15.20;99.90
51567;DHT22;37657;53.182;5.638;2023-05-25T14:32:02;15.20;99.90
51567;DHT22;37657;53.182;5.638;2023-05-25T14:34:28;15.20;99.90
51567;DHT22;37657;53.182;5.638;2023-05-25T14:36:53;14.90;99.90
51567;DHT22;37657;53.182;5.638;2023-05-25T14:39:19;14.50;99.90
51567;DHT22;37657;53.182;5.638;2023-05-25T14:41:45;14.50;99.90
51567;DHT22;37657;53.182;5.638;2023-05-25T14:44:10;14.50;99.90
51567;DHT22;37657;53.182;5.638;2023-05-25T14:46:36;14.60;99.90
51567;DHT22;37657;53.182;5.638;2023-05-25T14:49:01;14.80;99.90
51567;DHT22;37657;53.182;5.638;2023-05-25T14:51:27;14.80;99.90
51567;DHT22;37657;53.182;5.638;2023-05-25T14:53:52;14.60;99.90
51567;DHT22;37657;53.182;5.638;2023-05-25T14:56:19;14.60;99.90
51567;DHT22;37657;53.182;5.638;2023-05-25T14:58:46;14.70;99.90
51567;DHT22;37657;53.182;5.638;2023-05-25T15:01:11;14.50;99.90
51567;DHT22;37657;53.182;5.638;2023-05-25T15:03:37;14.50;99.90
51567;DHT22;37657;53.182;5.638;2023-05-25T15:06:03;14.40;99.90
51567;DHT22;37657;53.182;5.638;2023-05-25T15:08:28;14.40;99.90
51567;DHT22;37657;53.182;5.638;2023-05-25T15:10:54;14.40;99.90
51567;DHT22;37657;53.182;5.638;2023-05-25T15:13:20;14.30;99.90
51567;DHT22;37657;53.182;5.638;2023-05-25T15:15:50;14.30;99.90
51567;DHT22;37657;53.182;5.638;2023-05-25T15:18:20;14.50;99.90
51567;DHT22;37657;53.182;5.638;2023-05-25T15:20:45;14.50;99.90
51567;DHT22;37657;53.182;5.638;2023-05-25T15:23:11;14.30;99.90
51567;DHT22;37657;53.182;5.638;2023-05-25T15:25:36;14.40;99.90
51567;DHT22;37657;53.182;5.638;2023-05-25T15:28:02;14.30;99.90
51567;DHT22;37657;53.182;5.638;2023-05-25T15:30:28;14.30;99.90
51567;DHT22;37657;53.182;5.638;2023-05-25T15:32:53;14.30;99.90
51567;DHT22;37657;53.182;5.638;2023-05-25T15:35:19;14.50;99.90
51567;DHT22;37657;53.182;5.638;2023-05-25T15:37:44;14.40;99.90
51567;DHT22;37657;53.182;5.638;2023-05-25T15:40:12;14.40;99.90
51567;DHT22;37657;53.182;5.638;2023-05-25T15:42:38;14.40;99.90
51567;DHT22;37657;53.182;5.638;2023-05-25T15:45:04;14.20;99.90
51567;DHT22;37657;53.182;5.638;2023-05-25T15:47:31;14.10;99.90
51567;DHT22;37657;53.182;5.638;2023-05-25T15:49:57;14.00;99.90
51567;DHT22;37657;53.182;5.638;2023-05-25T15:52:22;14.00;99.90